Friday, February 24, 2017, 12:06 PM EST

KPTB, Petersburg, Dinwiddie County Airport

Location: Petersburg, VA, United States Lat: 37.183
Local Time: 12:06 PM EST (17:06 GMT) Lon: -77.517
Time Zone: US/Eastern Elev: 193 ft

Show me the last for .
Show Decoded

2017-02-24 11:35 METAR KPTB 241635Z AUTO 19006KT 10SM BKN024 21/14 A2995 RMK AO2 T02070137 =
2017-02-24 11:15 METAR KPTB 241615Z AUTO 14004KT 10SM SCT022 20/14 A2995 RMK AO2 T02030136 =
2017-02-24 10:55 METAR KPTB 241555Z AUTO 15005KT 10SM CLR 20/14 A2996 RMK AO2 T01950136 =
2017-02-24 10:35 METAR KPTB 241535Z AUTO 19003KT 10SM CLR 19/14 A2997 RMK AO2 T01890137 =
2017-02-24 10:15 METAR KPTB 241515Z AUTO 13003KT 10SM CLR 18/14 A2997 RMK AO2 T01760135 =
2017-02-24 09:55 METAR KPTB 241455Z AUTO 12006KT 10SM CLR 17/13 A2998 RMK AO2 T01690134 =
2017-02-24 09:35 METAR KPTB 241435Z AUTO 21004KT 10SM SCT004 16/13 A2998 RMK AO2 T01560132 =
2017-02-24 09:15 METAR KPTB 241415Z AUTO 17003KT 10SM SCT004 14/13 A2998 RMK AO2 T01400126 =
2017-02-24 08:55 METAR KPTB 241355Z AUTO 16003KT 10SM CLR 14/13 A2998 RMK AO2 T01360126 =
2017-02-24 08:35 METAR KPTB 241335Z AUTO 00000KT 10SM CLR 13/12 A2997 RMK AO2 T01260122 =
2017-02-24 08:15 METAR KPTB 241315Z AUTO 00000KT 7SM SCT002 11/11 A2996 RMK AO2 T01110107 =
2017-02-24 07:55 METAR KPTB 241255Z AUTO 00000KT 3SM BR BKN002 OVC006 09/09 A2995 RMK AO2
                 T00920088 =
2017-02-24 07:35 METAR KPTB 241235Z AUTO 00000KT 1/4SM FG OVC005 08/07 A2995 RMK AO2 T00750071 =
2017-02-24 07:15 METAR KPTB 241215Z AUTO 00000KT M1/4SM FG OVC003 07/06 A2994 RMK AO2 T00650061 =
2017-02-24 06:55 METAR KPTB 241155Z AUTO 00000KT 1/4SM FG OVC003 07/06 A2994 RMK AO2 T00650061
                 10097 20056 =
2017-02-24 06:35 METAR KPTB 241135Z AUTO 00000KT 1/4SM FG OVC003 06/06 A2995 RMK AO2 T00630060 =
2017-02-24 06:15 METAR KPTB 241115Z AUTO 00000KT 1/2SM FG OVC003 06/06 A2995 RMK AO2 T00630059 =
2017-02-24 05:55 METAR KPTB 241055Z AUTO 00000KT 1/2SM FG OVC003 06/05 A2995 RMK AO2 T00570053 =
2017-02-24 05:35 METAR KPTB 241035Z AUTO 00000KT 3/4SM BR OVC003 06/06 A2994 RMK AO2 T00600056 =
2017-02-24 05:15 METAR KPTB 241015Z AUTO 00000KT 1/4SM FG OVC008 06/06 A2994 RMK AO2 T00600056 =
2017-02-24 04:55 METAR KPTB 240955Z AUTO 00000KT 3/4SM BR OVC010 07/06 A2994 RMK AO2 T00650061 =
2017-02-24 04:35 METAR KPTB 240935Z AUTO 00000KT 1/2SM FG BKN010 07/06 A2994 RMK AO2 T00660061 =
2017-02-24 04:15 METAR KPTB 240915Z AUTO 00000KT 1/2SM FG BKN010 08/07 A2994 RMK AO2 T00760072 =
2017-02-24 03:55 METAR KPTB 240855Z AUTO 00000KT 3/4SM BR VV005 08/07 A2993 RMK AO2 T00760071 =
2017-02-24 03:35 METAR KPTB 240835Z AUTO 00000KT 1 3/4SM BR VV007 10/09 A2993 RMK AO2 T00950091 =
2017-02-24 03:15 METAR KPTB 240815Z AUTO 00000KT 3/4SM BR VV005 08/07 A2993 RMK AO2 T00760072 =
2017-02-24 02:55 METAR KPTB 240755Z AUTO 00000KT 3/4SM BR VV005 08/08 A2993 RMK AO2 T00830079 =
2017-02-24 02:35 METAR KPTB 240735Z AUTO 00000KT 3/4SM BR VV005 08/07 A2993 RMK AO2 T00790074 =
2017-02-24 02:15 METAR KPTB 240715Z AUTO 00000KT 2 1/2SM BR CLR 07/07 A2993 RMK AO2 T00730068 =
2017-02-24 01:55 METAR KPTB 240655Z AUTO 00000KT 1SM BR VV007 08/07 A2993 RMK AO2 T00790073 =
2017-02-24 01:35 METAR KPTB 240635Z AUTO 00000KT 5SM BR CLR 09/08 A2993 RMK AO2 T00850080 =
2017-02-24 01:15 METAR KPTB 240615Z AUTO 00000KT 5SM BR CLR 09/08 A2994 RMK AO2 T00870082 =
2017-02-24 00:55 METAR KPTB 240555Z AUTO 00000KT 7SM CLR 08/07 A2994 RMK AO2 T00800074 10153
                 20078 =
2017-02-24 00:35 METAR KPTB 240535Z AUTO 00000KT 7SM CLR 08/07 A2994 RMK AO2 T00800073 =
2017-02-24 00:15 METAR KPTB 240515Z AUTO 00000KT 10SM CLR 09/08 A2994 RMK AO2 T00890083 =
2017-02-23 23:55 METAR KPTB 240455Z AUTO 00000KT 10SM CLR 10/09 A2995 RMK AO2 T00990094 402360087
                 =
2017-02-23 23:35 METAR KPTB 240435Z AUTO 00000KT 5SM BR CLR 10/10 A2994 RMK AO2 T01020095 =
2017-02-23 23:15 METAR KPTB 240415Z AUTO 00000KT 10SM CLR 12/11 A2993 RMK AO2 T01200107 =
2017-02-23 22:55 METAR KPTB 240355Z AUTO 00000KT 10SM CLR 13/11 A2993 RMK AO2 T01340112 =
2017-02-23 22:35 METAR KPTB 240335Z AUTO 00000KT 10SM CLR 13/11 A2993 RMK AO2 T01290110 =
2017-02-23 22:15 METAR KPTB 240315Z AUTO 00000KT 10SM CLR 13/11 A2993 RMK AO2 T01320107 =
2017-02-23 21:55 METAR KPTB 240255Z AUTO 00000KT 10SM CLR 15/11 A2993 RMK AO2 T01450109 =
2017-02-23 21:35 METAR KPTB 240235Z AUTO 16003KT 10SM CLR 15/11 A2993 RMK AO2 T01470110 =
2017-02-23 21:15 METAR KPTB 240215Z AUTO 16003KT 10SM CLR 15/11 A2993 RMK AO2 T01480107 =
2017-02-23 20:55 METAR KPTB 240155Z AUTO 00000KT 10SM CLR 15/11 A2993 RMK AO2 T01530106 =
2017-02-23 20:35 METAR KPTB 240135Z AUTO 00000KT 10SM CLR 12/10 A2993 RMK AO2 T01200095 =
2017-02-23 20:15 METAR KPTB 240115Z AUTO 00000KT 10SM CLR 10/09 A2992 RMK AO2 T01030090 =
2017-02-23 19:55 METAR KPTB 240055Z AUTO 00000KT 10SM CLR 11/10 A2991 RMK AO2 T01140102 =
2017-02-23 19:35 METAR KPTB 240035Z AUTO 00000KT 10SM CLR 11/09 A2991 RMK AO2 T01100091 =
2017-02-23 19:15 METAR KPTB 240015Z AUTO 00000KT 10SM CLR 12/10 A2991 RMK AO2 T01190098 =
2017-02-23 18:55 METAR KPTB 232355Z AUTO 00000KT 10SM CLR 13/10 A2991 RMK AO2 T01250103 10236
                 20125 =
2017-02-23 18:35 METAR KPTB 232335Z AUTO 00000KT 10SM CLR 13/10 A2991 RMK AO2 T01310101 =
2017-02-23 18:15 METAR KPTB 232315Z AUTO 00000KT 10SM CLR 14/11 A2990 RMK AO2 T01440105 =
2017-02-23 17:55 METAR KPTB 232255Z AUTO 00000KT 10SM CLR 19/10 A2989 RMK AO2 T01930101 =
2017-02-23 17:35 METAR KPTB 232235Z AUTO 00000KT 10SM CLR 21/10 A2988 RMK AO2 T02050097 =
2017-02-23 17:15 METAR KPTB 232215Z AUTO 14004KT 10SM CLR 21/10 A2987 RMK AO2 T02140098 =
2017-02-23 16:55 METAR KPTB 232155Z AUTO 18003KT 10SM CLR 22/10 A2988 RMK AO2 T02200100 =
2017-02-23 16:35 METAR KPTB 232135Z AUTO 15003KT 10SM SCT060 22/10 A2987 RMK AO2 T02220099 =
2017-02-23 16:15 METAR KPTB 232115Z AUTO 19006KT 10SM SCT060 22/10 A2987 RMK AO2 T02200096 =
2017-02-23 15:55 METAR KPTB 232055Z AUTO 20005KT 10SM SCT050 22/09 A2987 RMK AO2 T02230093 =
2017-02-23 15:35 METAR KPTB 232035Z AUTO 16005KT 10SM BKN050 23/09 A2987 RMK AO2 T02320093 =
2017-02-23 15:15 METAR KPTB 232015Z AUTO 19009G14KT 170V240 10SM SCT050 24/09 A2987 RMK AO2
                 T02350088 =
2017-02-23 14:55 METAR KPTB 231955Z AUTO 16006KT 10SM SCT050 23/09 A2987 RMK AO2 T02310089 =
2017-02-23 14:35 METAR KPTB 231935Z AUTO 21007G14KT 10SM SCT048 23/10 A2987 RMK AO2 T02280095 =
2017-02-23 14:15 METAR KPTB 231915Z AUTO 21006KT 10SM SCT046 23/10 A2987 RMK AO2 T02320103 =
2017-02-23 13:55 METAR KPTB 231855Z AUTO 19007KT 150V220 10SM CLR 23/10 A2988 RMK AO2 T02290100 =
2017-02-23 13:35 METAR KPTB 231835Z AUTO 19004KT 10SM CLR 23/10 A2989 RMK AO2 T02260100 =
2017-02-23 13:15 METAR KPTB 231815Z AUTO 22006KT 10SM CLR 23/10 A2990 RMK AO2 T02280096 =
2017-02-23 12:55 METAR KPTB 231755Z AUTO 19006KT 130V200 10SM SCT060 23/10 A2991 RMK AO2
                 T02250095 10227 20102 =
2017-02-23 12:35 METAR KPTB 231735Z AUTO 19007KT 10SM SCT060 22/09 A2992 RMK AO2 T02170091 =
2017-02-23 12:15 METAR KPTB 231715Z AUTO 22004KT 10SM SCT060 21/11 A2993 RMK AO2 T02110113 =

Support USWX by starting your Amazon purchase here.